createdAt,value
2023-04-02T00:00:46.000Z,0
2023-04-02T00:01:47.000Z,0
2023-04-02T00:02:47.000Z,0
2023-04-02T00:03:48.000Z,0
2023-04-02T00:04:49.000Z,0
2023-04-02T00:05:50.000Z,0
2023-04-02T00:06:56.000Z,0
2023-04-02T00:07:56.000Z,0
2023-04-02T00:08:57.000Z,0
2023-04-02T00:09:58.000Z,0
2023-04-02T00:10:59.000Z,0
2023-04-02T00:12:00.000Z,0
2023-04-02T00:13:00.000Z,0
2023-04-02T00:14:01.000Z,0
2023-04-02T00:15:02.000Z,0
2023-04-02T00:16:03.000Z,0
2023-04-02T00:17:04.000Z,0
2023-04-02T00:18:05.000Z,0
2023-04-02T00:19:05.000Z,0
2023-04-02T00:20:06.000Z,0
2023-04-02T00:21:07.000Z,0
2023-04-02T00:22:08.000Z,0
2023-04-02T00:23:09.000Z,0
2023-04-02T00:24:09.000Z,0
2023-04-02T00:25:10.000Z,0
2023-04-02T00:26:11.000Z,0
2023-04-02T00:27:12.000Z,0
2023-04-02T00:28:12.000Z,0
2023-04-02T00:29:13.000Z,0
2023-04-02T00:30:14.000Z,0
2023-04-02T00:31:15.000Z,0
2023-04-02T00:32:16.000Z,0
2023-04-02T00:33:16.000Z,0
2023-04-02T00:34:17.000Z,0
2023-04-02T00:35:18.000Z,0
2023-04-02T00:36:19.000Z,0
2023-04-02T00:37:20.000Z,0
2023-04-02T00:38:20.000Z,0
2023-04-02T00:39:21.000Z,0
2023-04-02T00:40:22.000Z,0
2023-04-02T00:41:23.000Z,0
2023-04-02T00:42:24.000Z,0
2023-04-02T00:43:25.000Z,0
2023-04-02T00:44:26.000Z,0
2023-04-02T00:45:26.000Z,0
2023-04-02T00:46:27.000Z,0
2023-04-02T00:47:28.000Z,0
2023-04-02T00:48:29.000Z,0
2023-04-02T00:49:30.000Z,0
2023-04-02T00:50:31.000Z,0
2023-04-02T00:51:31.000Z,0
2023-04-02T00:52:32.000Z,0
2023-04-02T00:53:33.000Z,0
2023-04-02T00:54:34.000Z,0
2023-04-02T00:55:35.000Z,0
2023-04-02T00:56:35.000Z,0
2023-04-02T00:57:36.000Z,0
2023-04-02T00:58:37.000Z,0
2023-04-02T00:59:38.000Z,0
2023-04-02T01:00:39.000Z,0
2023-04-02T01:01:39.000Z,0
2023-04-02T01:02:40.000Z,0
2023-04-02T01:03:41.000Z,0
2023-04-02T01:04:42.000Z,0
2023-04-02T01:05:43.000Z,0
2023-04-02T01:06:44.000Z,0
2023-04-02T01:07:49.000Z,0
2023-04-02T01:08:50.000Z,0
2023-04-02T01:09:51.000Z,0
2023-04-02T01:10:53.000Z,0
2023-04-02T01:11:54.000Z,0
2023-04-02T01:12:54.000Z,0
2023-04-02T01:13:55.000Z,0
2023-04-02T01:15:01.000Z,0
2023-04-02T01:16:02.000Z,0
2023-04-02T01:17:03.000Z,0
2023-04-02T01:18:03.000Z,0
2023-04-02T01:19:04.000Z,0
2023-04-02T01:20:05.000Z,0
2023-04-02T01:21:06.000Z,0
2023-04-02T01:22:07.000Z,0
2023-04-02T01:23:07.000Z,0
2023-04-02T01:24:08.000Z,0
2023-04-02T01:25:09.000Z,0
2023-04-02T01:26:10.000Z,0
2023-04-02T01:27:11.000Z,0
2023-04-02T01:28:11.000Z,0
2023-04-02T01:29:12.000Z,0
2023-04-02T01:30:13.000Z,0
2023-04-02T01:31:14.000Z,0
2023-04-02T01:32:15.000Z,0
2023-04-02T01:33:16.000Z,0
2023-04-02T01:34:16.000Z,0
2023-04-02T01:35:17.000Z,0
2023-04-02T01:36:18.000Z,0
2023-04-02T01:37:19.000Z,0
2023-04-02T01:38:20.000Z,0
2023-04-02T01:39:21.000Z,0
2023-04-02T01:40:22.000Z,0
2023-04-02T01:41:22.000Z,0
2023-04-02T01:42:23.000Z,0
2023-04-02T01:43:24.000Z,0
2023-04-02T01:44:25.000Z,0
2023-04-02T01:45:26.000Z,0
2023-04-02T01:46:26.000Z,0
2023-04-02T01:47:27.000Z,0
2023-04-02T01:48:28.000Z,0
2023-04-02T01:49:29.000Z,0
2023-04-02T01:50:30.000Z,0
2023-04-02T01:51:31.000Z,0
2023-04-02T01:52:31.000Z,0
2023-04-02T01:53:32.000Z,0
2023-04-02T01:54:33.000Z,0
2023-04-02T01:55:34.000Z,0
2023-04-02T01:56:35.000Z,0
2023-04-02T01:57:35.000Z,0
2023-04-02T01:58:36.000Z,0
2023-04-02T01:59:37.000Z,0
2023-04-02T02:00:38.000Z,0
2023-04-02T02:01:39.000Z,0
2023-04-02T02:02:40.000Z,0
2023-04-02T02:03:40.000Z,0
2023-04-02T02:04:41.000Z,0
2023-04-02T02:05:43.000Z,0
2023-04-02T02:06:44.000Z,0
2023-04-02T02:07:44.000Z,0
2023-04-02T02:08:45.000Z,0
2023-04-02T02:09:46.000Z,0
2023-04-02T02:10:47.000Z,0
2023-04-02T02:11:48.000Z,0
2023-04-02T02:12:49.000Z,0
2023-04-02T02:13:49.000Z,0
2023-04-02T02:14:50.000Z,0
2023-04-02T02:15:51.000Z,0
2023-04-02T02:16:52.000Z,0
2023-04-02T02:18:00.000Z,0
2023-04-02T02:19:01.000Z,0
2023-04-02T02:20:02.000Z,0
2023-04-02T02:21:02.000Z,0
2023-04-02T02:22:03.000Z,0
2023-04-02T02:23:04.000Z,0
2023-04-02T02:24:05.000Z,0
2023-04-02T02:25:06.000Z,0
2023-04-02T02:26:07.000Z,0
2023-04-02T02:27:07.000Z,0
2023-04-02T02:28:08.000Z,0
2023-04-02T02:29:09.000Z,0
2023-04-02T02:30:10.000Z,0
2023-04-02T02:31:11.000Z,0
2023-04-02T02:32:11.000Z,0
2023-04-02T02:33:12.000Z,0
2023-04-02T02:34:13.000Z,0
2023-04-02T02:35:14.000Z,0
2023-04-02T02:36:15.000Z,0
2023-04-02T02:37:15.000Z,0
2023-04-02T02:38:16.000Z,0
2023-04-02T02:39:17.000Z,0
2023-04-02T02:40:18.000Z,0
2023-04-02T02:41:19.000Z,0
2023-04-02T02:42:19.000Z,0
2023-04-02T02:43:20.000Z,0
2023-04-02T02:44:21.000Z,0
2023-04-02T02:45:22.000Z,0
2023-04-02T02:46:23.000Z,0
2023-04-02T02:47:23.000Z,0
2023-04-02T02:48:24.000Z,0
2023-04-02T02:49:25.000Z,0
2023-04-02T02:50:26.000Z,0
2023-04-02T02:51:27.000Z,0
2023-04-02T02:52:27.000Z,0
2023-04-02T02:53:28.000Z,0
2023-04-02T02:54:29.000Z,0
2023-04-02T02:55:30.000Z,0
2023-04-02T02:56:30.000Z,0
2023-04-02T02:57:31.000Z,0
2023-04-02T02:58:32.000Z,0
2023-04-02T02:59:33.000Z,0
2023-04-02T03:00:34.000Z,0
2023-04-02T03:01:34.000Z,0
2023-04-02T03:02:35.000Z,0
2023-04-02T03:03:36.000Z,0
2023-04-02T03:04:37.000Z,0
2023-04-02T03:05:37.000Z,0
2023-04-02T03:06:38.000Z,0
2023-04-02T03:07:39.000Z,0
2023-04-02T03:08:40.000Z,0
2023-04-02T03:09:41.000Z,0
2023-04-02T03:10:41.000Z,0
2023-04-02T03:11:42.000Z,0
2023-04-02T03:12:43.000Z,0
2023-04-02T03:13:44.000Z,0
2023-04-02T03:14:44.000Z,0
2023-04-02T03:15:45.000Z,0
2023-04-02T03:16:46.000Z,0
2023-04-02T03:17:47.000Z,0
2023-04-02T03:18:48.000Z,0
2023-04-02T03:19:48.000Z,0
2023-04-02T03:20:49.000Z,0
2023-04-02T03:21:50.000Z,0
2023-04-02T03:22:51.000Z,0
2023-04-02T03:23:52.000Z,0
2023-04-02T03:24:52.000Z,0
2023-04-02T03:25:53.000Z,0
2023-04-02T03:26:54.000Z,0
2023-04-02T03:27:55.000Z,0
2023-04-02T03:28:56.000Z,0
2023-04-02T03:29:56.000Z,0
2023-04-02T03:30:57.000Z,0
2023-04-02T03:31:58.000Z,0
2023-04-02T03:32:59.000Z,0
2023-04-02T03:34:00.000Z,0
2023-04-02T03:35:00.000Z,0
2023-04-02T03:36:01.000Z,0
2023-04-02T03:37:02.000Z,0
2023-04-02T03:38:03.000Z,0
2023-04-02T03:39:03.000Z,0
2023-04-02T03:40:04.000Z,0
2023-04-02T03:41:05.000Z,0
2023-04-02T03:42:06.000Z,0
2023-04-02T03:43:06.000Z,0
2023-04-02T03:44:07.000Z,0
2023-04-02T03:45:08.000Z,0
2023-04-02T03:46:09.000Z,0
2023-04-02T03:47:09.000Z,0
2023-04-02T03:48:10.000Z,0
2023-04-02T03:49:11.000Z,0
2023-04-02T03:50:12.000Z,0
2023-04-02T03:51:12.000Z,0
2023-04-02T03:52:13.000Z,0
2023-04-02T03:53:14.000Z,0
2023-04-02T03:54:15.000Z,0
2023-04-02T03:55:16.000Z,0
2023-04-02T03:56:16.000Z,0
2023-04-02T03:57:17.000Z,0
2023-04-02T03:58:18.000Z,0
2023-04-02T03:59:19.000Z,0
2023-04-02T04:00:20.000Z,0
2023-04-02T04:01:20.000Z,0
2023-04-02T04:02:21.000Z,0
2023-04-02T04:03:22.000Z,0
2023-04-02T04:04:23.000Z,0
2023-04-02T04:05:24.000Z,0
2023-04-02T04:06:24.000Z,0
2023-04-02T04:07:25.000Z,0
2023-04-02T04:08:26.000Z,0
2023-04-02T04:09:26.000Z,0
2023-04-02T04:10:27.000Z,1
2023-04-02T04:11:28.000Z,1
2023-04-02T04:12:29.000Z,0
2023-04-02T04:13:30.000Z,0
2023-04-02T04:14:30.000Z,1
2023-04-02T04:15:31.000Z,1
2023-04-02T04:16:32.000Z,1
2023-04-02T04:17:33.000Z,1
2023-04-02T04:18:33.000Z,1
2023-04-02T04:19:34.000Z,2
2023-04-02T04:20:35.000Z,3
2023-04-02T04:21:36.000Z,2
2023-04-02T04:22:36.000Z,3
2023-04-02T04:23:37.000Z,4
2023-04-02T04:24:38.000Z,5
2023-04-02T04:25:39.000Z,5
2023-04-02T04:26:39.000Z,6
2023-04-02T04:27:40.000Z,8
2023-04-02T04:28:41.000Z,10
2023-04-02T04:29:42.000Z,12
2023-04-02T04:30:43.000Z,15
2023-04-02T04:31:43.000Z,18
2023-04-02T04:32:44.000Z,21
2023-04-02T04:33:45.000Z,24
2023-04-02T04:34:46.000Z,29
2023-04-02T04:35:47.000Z,31
2023-04-02T04:36:47.000Z,38
2023-04-02T04:37:48.000Z,42
2023-04-02T04:38:49.000Z,50
2023-04-02T04:39:50.000Z,55
2023-04-02T04:40:50.000Z,51
2023-04-02T04:41:52.000Z,64
2023-04-02T04:42:52.000Z,71
2023-04-02T04:43:53.000Z,90
2023-04-02T04:44:54.000Z,82
2023-04-02T04:45:55.000Z,76
2023-04-02T04:46:56.000Z,71
2023-04-02T04:47:56.000Z,86
2023-04-02T04:48:57.000Z,94
2023-04-02T04:49:58.000Z,94
2023-04-02T04:50:59.000Z,107
2023-04-02T04:51:59.000Z,114
2023-04-02T04:53:00.000Z,116
2023-04-02T04:54:01.000Z,136
2023-04-02T04:55:02.000Z,135
2023-04-02T04:56:02.000Z,137
2023-04-02T04:57:03.000Z,149
2023-04-02T04:58:04.000Z,161
2023-04-02T04:59:05.000Z,158
2023-04-02T05:00:05.000Z,165
2023-04-02T05:01:06.000Z,177
2023-04-02T05:02:07.000Z,183
2023-04-02T05:03:08.000Z,193
2023-04-02T05:04:08.000Z,223
2023-04-02T05:05:09.000Z,279
2023-04-02T05:06:10.000Z,354
2023-04-02T05:07:11.000Z,404
2023-04-02T05:08:11.000Z,426
2023-04-02T05:09:12.000Z,410
2023-04-02T05:10:13.000Z,492
2023-04-02T05:11:14.000Z,554
2023-04-02T05:12:15.000Z,576
2023-04-02T05:13:15.000Z,573
2023-04-02T05:14:16.000Z,564
2023-04-02T05:15:17.000Z,561
2023-04-02T05:16:18.000Z,617
2023-04-02T05:17:19.000Z,572
2023-04-02T05:18:20.000Z,570
2023-04-02T05:19:20.000Z,628
2023-04-02T05:20:21.000Z,604
2023-04-02T05:21:22.000Z,586
2023-04-02T05:22:23.000Z,606
2023-04-02T05:23:24.000Z,639
2023-04-02T05:24:29.000Z,625
2023-04-02T05:25:30.000Z,633
2023-04-02T05:26:31.000Z,578
2023-04-02T05:27:32.000Z,630
2023-04-02T05:28:33.000Z,795
2023-04-02T05:29:34.000Z,770
2023-04-02T05:30:34.000Z,628
2023-04-02T05:31:35.000Z,602
2023-04-02T05:32:36.000Z,622
2023-04-02T05:33:37.000Z,752
2023-04-02T05:34:37.000Z,722
2023-04-02T05:35:38.000Z,826
2023-04-02T05:36:39.000Z,799
2023-04-02T05:37:40.000Z,863
2023-04-02T05:38:40.000Z,881
2023-04-02T05:39:41.000Z,930
2023-04-02T05:40:42.000Z,981
2023-04-02T05:41:43.000Z,979
2023-04-02T05:42:43.000Z,998
2023-04-02T05:43:44.000Z,1184
2023-04-02T05:44:45.000Z,1122
2023-04-02T05:45:46.000Z,1236
2023-04-02T05:46:46.000Z,1531
2023-04-02T05:47:47.000Z,1553
2023-04-02T05:48:48.000Z,1536
2023-04-02T05:49:49.000Z,1591
2023-04-02T05:50:49.000Z,1928
2023-04-02T05:51:50.000Z,2109
2023-04-02T05:52:51.000Z,2042
2023-04-02T05:53:52.000Z,1808
2023-04-02T05:54:53.000Z,1695
2023-04-02T05:55:53.000Z,1605
2023-04-02T05:56:54.000Z,1889
2023-04-02T05:57:55.000Z,1706
2023-04-02T05:58:56.000Z,1701
2023-04-02T05:59:56.000Z,2143
2023-04-02T06:00:57.000Z,2112
2023-04-02T06:01:58.000Z,1715
2023-04-02T06:02:59.000Z,1730
2023-04-02T06:03:59.000Z,1743
2023-04-02T06:05:00.000Z,2076
2023-04-02T06:06:01.000Z,1692
2023-04-02T06:07:02.000Z,1813
2023-04-02T06:08:03.000Z,1619
2023-04-02T06:09:03.000Z,1897
2023-04-02T06:10:04.000Z,1690
2023-04-02T06:11:05.000Z,1953
2023-04-02T06:12:06.000Z,2143
2023-04-02T06:13:07.000Z,2142
2023-04-02T06:14:08.000Z,1948
2023-04-02T06:15:08.000Z,2016
2023-04-02T06:16:09.000Z,1812
2023-04-02T06:17:10.000Z,2097
2023-04-02T06:18:11.000Z,2119
2023-04-02T06:19:11.000Z,2087
2023-04-02T06:20:12.000Z,2343
2023-04-02T06:21:13.000Z,2316
2023-04-02T06:22:14.000Z,2670
2023-04-02T06:23:15.000Z,3233
2023-04-02T06:24:15.000Z,3410
2023-04-02T06:25:16.000Z,3705
2023-04-02T06:26:17.000Z,4247
2023-04-02T06:27:18.000Z,4575
2023-04-02T06:28:19.000Z,4867
2023-04-02T06:29:19.000Z,4691
2023-04-02T06:30:20.000Z,4280
2023-04-02T06:31:21.000Z,3651
2023-04-02T06:32:22.000Z,3751
2023-04-02T06:33:23.000Z,3930
2023-04-02T06:34:23.000Z,4178
2023-04-02T06:35:24.000Z,3709
2023-04-02T06:36:25.000Z,3007
2023-04-02T06:37:26.000Z,3131
2023-04-02T06:38:27.000Z,2380
2023-04-02T06:39:27.000Z,2225
2023-04-02T06:40:28.000Z,2636
2023-04-02T06:41:29.000Z,2942
2023-04-02T06:42:30.000Z,2958
2023-04-02T06:43:30.000Z,3186
2023-04-02T06:44:31.000Z,3226
2023-04-02T06:45:32.000Z,3214
2023-04-02T06:46:33.000Z,3621
2023-04-02T06:47:34.000Z,3573
2023-04-02T06:48:34.000Z,3450
2023-04-02T06:49:35.000Z,3606
2023-04-02T06:50:36.000Z,3868
2023-04-02T06:51:37.000Z,3723
2023-04-02T06:52:38.000Z,3853
2023-04-02T06:53:38.000Z,3863
2023-04-02T06:54:39.000Z,3821
2023-04-02T06:55:40.000Z,3901
2023-04-02T06:56:41.000Z,4172
2023-04-02T06:57:41.000Z,3919
2023-04-02T06:58:42.000Z,3769
2023-04-02T06:59:43.000Z,3990
2023-04-02T07:00:44.000Z,4418
2023-04-02T07:01:44.000Z,4708
2023-04-02T07:02:45.000Z,4986
2023-04-02T07:03:46.000Z,4798
2023-04-02T07:04:47.000Z,4591
2023-04-02T07:05:47.000Z,4972
2023-04-02T07:06:48.000Z,5332
2023-04-02T07:07:49.000Z,5536
2023-04-02T07:08:50.000Z,5646
2023-04-02T07:09:50.000Z,5931
2023-04-02T07:10:51.000Z,5682
2023-04-02T07:11:52.000Z,6210
2023-04-02T07:12:53.000Z,6200
2023-04-02T07:13:53.000Z,6346
2023-04-02T07:14:54.000Z,6572
2023-04-02T07:15:55.000Z,7413
2023-04-02T07:16:56.000Z,8349
2023-04-02T07:17:56.000Z,8410
2023-04-02T07:18:57.000Z,8530
2023-04-02T07:19:58.000Z,8329
2023-04-02T07:20:59.000Z,8525
2023-04-02T07:21:59.000Z,8511
2023-04-02T07:23:00.000Z,8990
2023-04-02T07:24:01.000Z,9119
2023-04-02T07:25:01.000Z,9358
2023-04-02T07:26:02.000Z,8836
2023-04-02T07:27:03.000Z,9502
2023-04-02T07:28:04.000Z,9218
2023-04-02T07:29:04.000Z,9250
2023-04-02T07:30:05.000Z,9424
2023-04-02T07:31:06.000Z,9198
2023-04-02T07:32:07.000Z,9250
2023-04-02T07:33:07.000Z,9537
2023-04-02T07:34:08.000Z,9662
2023-04-02T07:35:09.000Z,10121
2023-04-02T07:36:10.000Z,10298
2023-04-02T07:37:10.000Z,10362
2023-04-02T07:38:11.000Z,10782
2023-04-02T07:39:12.000Z,12080
2023-04-02T07:40:13.000Z,11721
2023-04-02T07:41:13.000Z,12286
2023-04-02T07:42:14.000Z,13408
2023-04-02T07:43:15.000Z,13225
2023-04-02T07:44:16.000Z,12374
2023-04-02T07:45:16.000Z,12286
2023-04-02T07:46:17.000Z,11133
2023-04-02T07:47:18.000Z,11482
2023-04-02T07:48:19.000Z,10742
2023-04-02T07:49:19.000Z,10457
2023-04-02T07:50:20.000Z,10257
2023-04-02T07:51:21.000Z,11462
2023-04-02T07:52:22.000Z,11858
2023-04-02T07:53:23.000Z,12453
2023-04-02T07:54:23.000Z,12114
2023-04-02T07:55:24.000Z,11964
2023-04-02T07:56:25.000Z,12070
2023-04-02T07:57:25.000Z,11561
2023-04-02T07:58:26.000Z,10915
2023-04-02T07:59:27.000Z,10847
2023-04-02T08:00:28.000Z,10985
2023-04-02T08:01:29.000Z,10198
2023-04-02T08:02:29.000Z,8830
2023-04-02T08:03:30.000Z,7769
2023-04-02T08:04:31.000Z,7496
2023-04-02T08:05:32.000Z,7601
2023-04-02T08:06:32.000Z,7871
2023-04-02T08:07:33.000Z,7993
2023-04-02T08:08:34.000Z,8311
2023-04-02T08:09:35.000Z,8442
2023-04-02T08:10:35.000Z,8345
2023-04-02T08:11:36.000Z,8158
2023-04-02T08:12:37.000Z,7974
2023-04-02T08:13:38.000Z,8000
2023-04-02T08:14:38.000Z,8286
2023-04-02T08:15:39.000Z,8692
2023-04-02T08:16:40.000Z,8854
2023-04-02T08:17:41.000Z,8913
2023-04-02T08:18:41.000Z,9199
2023-04-02T08:19:42.000Z,9639
2023-04-02T08:20:43.000Z,9852
2023-04-02T08:21:44.000Z,9813
2023-04-02T08:22:44.000Z,9777
2023-04-02T08:23:45.000Z,9547
2023-04-02T08:24:46.000Z,9328
2023-04-02T08:25:46.000Z,10212
2023-04-02T08:26:47.000Z,11834
2023-04-02T08:27:48.000Z,13188
2023-04-02T08:28:49.000Z,14792
2023-04-02T08:29:49.000Z,17200
2023-04-02T08:30:50.000Z,20248
2023-04-02T08:31:51.000Z,23208
2023-04-02T08:32:52.000Z,24192
2023-04-02T08:33:52.000Z,23824
2023-04-02T08:34:53.000Z,23952
2023-04-02T08:35:54.000Z,27784
2023-04-02T08:36:55.000Z,25568
2023-04-02T08:37:55.000Z,24856
2023-04-02T08:38:56.000Z,24464
2023-04-02T08:39:57.000Z,21328
2023-04-02T08:40:58.000Z,18952
2023-04-02T08:41:58.000Z,14736
2023-04-02T08:42:59.000Z,12742
2023-04-02T08:44:00.000Z,11952
2023-04-02T08:45:01.000Z,10947
2023-04-02T08:46:01.000Z,11513
2023-04-02T08:47:02.000Z,13100
2023-04-02T08:48:03.000Z,12607
2023-04-02T08:49:04.000Z,11974
2023-04-02T08:50:04.000Z,11223
2023-04-02T08:51:05.000Z,10370
2023-04-02T08:52:06.000Z,9759
2023-04-02T08:53:07.000Z,9313
2023-04-02T08:54:07.000Z,9970
2023-04-02T08:55:08.000Z,11014
2023-04-02T08:56:09.000Z,10441
2023-04-02T08:57:10.000Z,10063
2023-04-02T08:58:10.000Z,10245
2023-04-02T08:59:11.000Z,10863
2023-04-02T09:00:12.000Z,10875
2023-04-02T09:01:12.000Z,10153
2023-04-02T09:02:13.000Z,8923
2023-04-02T09:03:14.000Z,8938
2023-04-02T09:04:15.000Z,9973
2023-04-02T09:05:15.000Z,10123
2023-04-02T09:06:16.000Z,9590
2023-04-02T09:07:17.000Z,10258
2023-04-02T09:08:18.000Z,10516
2023-04-02T09:09:18.000Z,11439
2023-04-02T09:10:19.000Z,11131
2023-04-02T09:11:20.000Z,10998
2023-04-02T09:12:21.000Z,11491
2023-04-02T09:13:21.000Z,11760
2023-04-02T09:14:22.000Z,11929
2023-04-02T09:15:23.000Z,13335
2023-04-02T09:16:24.000Z,13908
2023-04-02T09:17:24.000Z,13454
2023-04-02T09:18:25.000Z,12953
2023-04-02T09:19:26.000Z,13188
2023-04-02T09:20:27.000Z,13155
2023-04-02T09:21:27.000Z,12186
2023-04-02T09:22:28.000Z,11389
2023-04-02T09:23:29.000Z,11354
2023-04-02T09:24:29.000Z,11553
2023-04-02T09:25:30.000Z,12752
2023-04-02T09:26:31.000Z,13117
2023-04-02T09:27:32.000Z,12368
2023-04-02T09:28:33.000Z,11774
2023-04-02T09:29:33.000Z,11413
2023-04-02T09:30:34.000Z,11436
2023-04-02T09:31:35.000Z,11414
2023-04-02T09:32:35.000Z,11227
2023-04-02T09:33:36.000Z,11025
2023-04-02T09:34:37.000Z,10917
2023-04-02T09:35:38.000Z,10743
2023-04-02T09:36:38.000Z,10381
2023-04-02T09:37:39.000Z,10267
2023-04-02T09:38:40.000Z,10166
2023-04-02T09:39:41.000Z,9513
2023-04-02T09:40:41.000Z,9333
2023-04-02T09:41:42.000Z,9384
2023-04-02T09:42:43.000Z,9350
2023-04-02T09:43:44.000Z,9247
2023-04-02T09:44:49.000Z,9477
2023-04-02T09:45:50.000Z,9957
2023-04-02T09:46:51.000Z,9817
2023-04-02T09:47:52.000Z,9989
2023-04-02T09:48:52.000Z,10554
2023-04-02T09:49:53.000Z,10831
2023-04-02T09:50:54.000Z,11582
2023-04-02T09:51:54.000Z,11924
2023-04-02T09:52:55.000Z,11993
2023-04-02T09:53:56.000Z,11866
2023-04-02T09:54:57.000Z,10607
2023-04-02T09:55:57.000Z,10995
2023-04-02T09:56:58.000Z,11180
2023-04-02T09:57:59.000Z,9739
2023-04-02T09:59:00.000Z,10088
2023-04-02T10:00:00.000Z,10567
2023-04-02T10:01:01.000Z,11418
2023-04-02T10:02:02.000Z,14736
2023-04-02T10:03:03.000Z,12900
2023-04-02T10:04:03.000Z,11070
2023-04-02T10:05:04.000Z,10212
2023-04-02T10:06:05.000Z,10164
2023-04-02T10:07:06.000Z,10114
2023-04-02T10:08:06.000Z,9699
2023-04-02T10:09:07.000Z,9701
2023-04-02T10:10:08.000Z,9827
2023-04-02T10:11:09.000Z,9435
2023-04-02T10:12:09.000Z,10261
2023-04-02T10:13:10.000Z,11253
2023-04-02T10:14:11.000Z,11532
2023-04-02T10:15:12.000Z,11166
2023-04-02T10:16:12.000Z,11244
2023-04-02T10:17:13.000Z,12228
2023-04-02T10:18:14.000Z,12934
2023-04-02T10:19:14.000Z,13407
2023-04-02T10:20:15.000Z,13289
2023-04-02T10:21:16.000Z,13292
2023-04-02T10:22:17.000Z,12997
2023-04-02T10:23:17.000Z,13013
2023-04-02T10:24:18.000Z,12891
2023-04-02T10:25:19.000Z,12505
2023-04-02T10:26:19.000Z,12067
2023-04-02T10:27:20.000Z,10576
2023-04-02T10:28:21.000Z,9871
2023-04-02T10:29:22.000Z,11574
2023-04-02T10:30:23.000Z,11454
2023-04-02T10:31:23.000Z,11088
2023-04-02T10:32:24.000Z,12177
2023-04-02T10:33:25.000Z,12342
2023-04-02T10:34:26.000Z,10714
2023-04-02T10:35:26.000Z,8921
2023-04-02T10:36:27.000Z,8773
2023-04-02T10:37:28.000Z,9391
2023-04-02T10:38:28.000Z,10474
2023-04-02T10:39:29.000Z,11094
2023-04-02T10:40:30.000Z,10234
2023-04-02T10:41:31.000Z,9618
2023-04-02T10:42:31.000Z,9300
2023-04-02T10:43:32.000Z,9131
2023-04-02T10:44:33.000Z,9043
2023-04-02T10:45:34.000Z,9156
2023-04-02T10:46:34.000Z,9776
2023-04-02T10:47:35.000Z,10489
2023-04-02T10:48:36.000Z,12057
2023-04-02T10:49:37.000Z,12672
2023-04-02T10:50:37.000Z,12769
2023-04-02T10:51:38.000Z,12180
2023-04-02T10:52:39.000Z,12565
2023-04-02T10:53:39.000Z,12558
2023-04-02T10:54:40.000Z,12741
2023-04-02T10:55:41.000Z,12421
2023-04-02T10:56:42.000Z,12109
2023-04-02T10:57:42.000Z,11857
2023-04-02T10:58:43.000Z,12100
2023-04-02T10:59:44.000Z,12642
2023-04-02T11:00:45.000Z,12500
2023-04-02T11:01:45.000Z,12322
2023-04-02T11:02:46.000Z,13389
2023-04-02T11:03:47.000Z,14505
2023-04-02T11:04:47.000Z,14919
2023-04-02T11:05:48.000Z,15401
2023-04-02T11:06:49.000Z,16464
2023-04-02T11:07:50.000Z,17040
2023-04-02T11:08:50.000Z,18344
2023-04-02T11:09:51.000Z,18096
2023-04-02T11:10:52.000Z,17160
2023-04-02T11:11:53.000Z,15766
2023-04-02T11:12:53.000Z,14636
2023-04-02T11:13:54.000Z,13173
2023-04-02T11:14:55.000Z,12934
2023-04-02T11:15:55.000Z,13229
2023-04-02T11:16:56.000Z,11835
2023-04-02T11:17:57.000Z,10365
2023-04-02T11:18:58.000Z,10028
2023-04-02T11:19:58.000Z,10237
2023-04-02T11:20:59.000Z,10606
2023-04-02T11:22:00.000Z,10985
2023-04-02T11:23:01.000Z,11288
2023-04-02T11:24:01.000Z,11464
2023-04-02T11:25:02.000Z,11663
2023-04-02T11:26:03.000Z,11400
2023-04-02T11:27:04.000Z,11058
2023-04-02T11:28:05.000Z,10892
2023-04-02T11:29:05.000Z,11333
2023-04-02T11:30:06.000Z,12437
2023-04-02T11:31:07.000Z,13957
2023-04-02T11:32:08.000Z,15186
2023-04-02T11:33:08.000Z,17064
2023-04-02T11:34:09.000Z,19152
2023-04-02T11:35:10.000Z,19696
2023-04-02T11:36:11.000Z,20408
2023-04-02T11:37:11.000Z,20192
2023-04-02T11:38:12.000Z,18936
2023-04-02T11:39:13.000Z,19424
2023-04-02T11:40:14.000Z,20464
2023-04-02T11:41:14.000Z,20248
2023-04-02T11:42:15.000Z,19608
2023-04-02T11:43:16.000Z,21296
2023-04-02T11:44:16.000Z,24216
2023-04-02T11:45:17.000Z,24528
2023-04-02T11:46:18.000Z,23240
2023-04-02T11:47:19.000Z,21376
2023-04-02T11:48:19.000Z,21008
2023-04-02T11:49:20.000Z,20320
2023-04-02T11:50:21.000Z,19672
2023-04-02T11:51:22.000Z,19312
2023-04-02T11:52:22.000Z,18160
2023-04-02T11:53:23.000Z,17232
2023-04-02T11:54:24.000Z,16224
2023-04-02T11:55:25.000Z,14827
2023-04-02T11:56:31.000Z,14269
2023-04-02T11:57:31.000Z,15581
2023-04-02T11:58:32.000Z,17808
2023-04-02T11:59:33.000Z,18960
2023-04-02T12:00:34.000Z,20104
2023-04-02T12:01:34.000Z,23608
2023-04-02T12:02:35.000Z,26392
2023-04-02T12:03:36.000Z,27816
2023-04-02T12:04:37.000Z,27216
2023-04-02T12:05:37.000Z,25896
2023-04-02T12:06:38.000Z,25104
2023-04-02T12:07:39.000Z,24544
2023-04-02T12:08:40.000Z,23672
2023-04-02T12:09:40.000Z,23080
2023-04-02T12:10:41.000Z,22368
2023-04-02T12:11:42.000Z,22152
2023-04-02T12:12:43.000Z,22352
2023-04-02T12:13:44.000Z,22104
2023-04-02T12:14:44.000Z,22648
2023-04-02T12:15:45.000Z,23680
2023-04-02T12:16:46.000Z,23016
2023-04-02T12:17:56.000Z,23240
2023-04-02T12:18:57.000Z,23736
2023-04-02T12:19:58.000Z,23152
2023-04-02T12:20:59.000Z,22816
2023-04-02T12:21:59.000Z,21224
2023-04-02T12:23:00.000Z,17848
2023-04-02T12:24:01.000Z,15520
2023-04-02T12:25:02.000Z,13966
2023-04-02T12:26:02.000Z,13069
2023-04-02T12:27:03.000Z,13793
2023-04-02T12:28:04.000Z,14979
2023-04-02T12:29:05.000Z,16792
2023-04-02T12:30:05.000Z,17184
2023-04-02T12:31:06.000Z,17888
2023-04-02T12:32:07.000Z,18992
2023-04-02T12:33:08.000Z,20120
2023-04-02T12:34:08.000Z,20912
2023-04-02T12:35:09.000Z,21096
2023-04-02T12:36:10.000Z,21008
2023-04-02T12:37:10.000Z,21032
2023-04-02T12:38:11.000Z,21288
2023-04-02T12:39:12.000Z,22624
2023-04-02T12:40:13.000Z,23296
2023-04-02T12:41:13.000Z,23104
2023-04-02T12:42:14.000Z,21840
2023-04-02T12:43:15.000Z,20360
2023-04-02T12:44:16.000Z,18944
2023-04-02T12:45:16.000Z,19648
2023-04-02T12:46:17.000Z,20720
2023-04-02T12:47:18.000Z,18648
2023-04-02T12:48:18.000Z,16504
2023-04-02T12:49:19.000Z,16112
2023-04-02T12:50:20.000Z,14448
2023-04-02T12:51:20.000Z,11979
2023-04-02T12:52:21.000Z,10101
2023-04-02T12:53:22.000Z,9356
2023-04-02T12:54:23.000Z,9661
2023-04-02T12:55:23.000Z,10097
2023-04-02T12:56:24.000Z,10428
2023-04-02T12:57:25.000Z,11618
2023-04-02T12:58:26.000Z,12775
2023-04-02T12:59:26.000Z,13513
2023-04-02T13:00:27.000Z,14069
2023-04-02T13:01:28.000Z,14503
2023-04-02T13:02:29.000Z,14602
2023-04-02T13:03:29.000Z,14892
2023-04-02T13:04:30.000Z,15174
2023-04-02T13:05:31.000Z,15976
2023-04-02T13:06:32.000Z,16400
2023-04-02T13:07:33.000Z,17104
2023-04-02T13:08:33.000Z,17616
2023-04-02T13:09:34.000Z,18008
2023-04-02T13:10:35.000Z,17664
2023-04-02T13:11:35.000Z,16944
2023-04-02T13:12:36.000Z,16688
2023-04-02T13:13:37.000Z,16352
2023-04-02T13:14:38.000Z,16264
2023-04-02T13:15:38.000Z,16080
2023-04-02T13:16:39.000Z,16088
2023-04-02T13:17:40.000Z,15433
2023-04-02T13:18:41.000Z,14899
2023-04-02T13:19:41.000Z,14352
2023-04-02T13:20:42.000Z,13788
2023-04-02T13:21:43.000Z,13534
2023-04-02T13:22:44.000Z,12855
2023-04-02T13:23:44.000Z,12244
2023-04-02T13:24:45.000Z,11600
2023-04-02T13:25:46.000Z,11861
2023-04-02T13:26:47.000Z,12275
2023-04-02T13:27:47.000Z,12832
2023-04-02T13:28:48.000Z,13340
2023-04-02T13:29:49.000Z,13434
2023-04-02T13:30:49.000Z,13563
2023-04-02T13:31:50.000Z,14209
2023-04-02T13:32:51.000Z,14948
2023-04-02T13:33:52.000Z,15587
2023-04-02T13:34:52.000Z,16376
2023-04-02T13:35:53.000Z,17264
2023-04-02T13:36:55.000Z,18104
2023-04-02T13:37:55.000Z,18696
2023-04-02T13:38:56.000Z,18576
2023-04-02T13:39:57.000Z,18736
2023-04-02T13:40:58.000Z,19456
2023-04-02T13:41:58.000Z,20128
2023-04-02T13:42:59.000Z,20976
2023-04-02T13:44:00.000Z,21712
2023-04-02T13:45:01.000Z,22344
2023-04-02T13:46:01.000Z,21232
2023-04-02T13:47:02.000Z,19224
2023-04-02T13:48:03.000Z,17304
2023-04-02T13:49:03.000Z,15355